Time;durP1;ratioP1;P1;durP2;ratioP2;P2;SDS_P1;SDS_P2;PMS_P1;PMS_P2;Temp;Humidity;BMP_temperature;BMP_pressure;BME280_temperature;BME280_humidity;BME280_pressure;Samples;Min_cycle;Max_cycle;Signal;HPM_P1;HPM_P2
2022/05/31 00:01:14;;;;;;;;;;;9.40;99.90;;;;;;5101675;28;19923;-73
2022/05/31 00:03:41;;;;;;;;;;;9.40;99.90;;;;;;5104564;28;20352;-72
2022/05/31 00:06:08;;;;;;;;;;;9.50;99.90;;;;;;5101732;28;19959;-72
2022/05/31 00:08:34;;;;;;;;;;;9.50;99.90;;;;;;5108159;28;19969;-70
2022/05/31 00:11:02;;;;;;;;;;;9.50;99.90;;;;;;5097915;28;19924;-70
2022/05/31 00:13:29;;;;;;;;;;;9.60;99.90;;;;;;5094130;28;19924;-70
2022/05/31 00:15:57;;;;;;;;;;;9.60;99.90;;;;;;5107538;28;19930;-70
2022/05/31 00:18:24;;;;;;;;;;;9.70;99.90;;;;;;5106931;28;19928;-69
2022/05/31 00:20:50;;;;;;;;;;;9.80;99.90;;;;;;5107111;28;20418;-70
2022/05/31 00:23:17;;;;;;;;;;;9.80;99.90;;;;;;5100561;28;19924;-70
2022/05/31 00:25:44;;;;;;;;;;;9.80;99.90;;;;;;5103620;28;19924;-70
2022/05/31 00:28:10;;;;;;;;;;;9.80;99.90;;;;;;5102792;28;19930;-71
2022/05/31 00:30:37;;;;;;;;;;;9.60;99.90;;;;;;5103272;28;19924;-70
2022/05/31 00:33:06;;;;;;;;;;;9.40;99.90;;;;;;5107023;28;19928;-70
2022/05/31 00:35:36;;;;;;;;;;;9.30;99.90;;;;;;5099451;28;19928;-70
2022/05/31 00:38:03;;;;;;;;;;;9.40;99.90;;;;;;5105613;28;20358;-70
2022/05/31 00:40:30;;;;;;;;;;;9.40;99.90;;;;;;5099161;28;19923;-70
2022/05/31 00:42:58;;;;;;;;;;;9.20;99.90;;;;;;5101163;28;19924;-70
2022/05/31 00:45:25;;;;;;;;;;;9.20;99.90;;;;;;5102826;28;19930;-70
2022/05/31 00:47:53;;;;;;;;;;;9.20;99.90;;;;;;5106434;28;19930;-71
2022/05/31 00:50:23;;;;;;;;;;;9.20;99.90;;;;;;5105403;28;19946;-70
2022/05/31 00:52:52;;;;;;;;;;;9.20;99.90;;;;;;5104587;28;20019;-71
2022/05/31 00:55:21;;;;;;;;;;;9.30;99.90;;;;;;5101055;28;19928;-71
2022/05/31 00:57:50;;;;;;;;;;;9.30;99.90;;;;;;5095492;28;20009;-70
2022/05/31 01:00:17;;;;;;;;;;;9.30;99.90;;;;;;5099931;28;19930;-70
2022/05/31 01:02:46;;;;;;;;;;;9.40;99.90;;;;;;5107545;28;19928;-71
2022/05/31 01:05:13;;;;;;;;;;;9.40;99.90;;;;;;5100622;28;19924;-70
2022/05/31 01:07:41;;;;;;;;;;;9.30;99.90;;;;;;5098606;28;19924;-71
2022/05/31 01:10:09;;;;;;;;;;;9.20;99.90;;;;;;5109997;28;20019;-71
2022/05/31 01:12:36;;;;;;;;;;;9.20;99.90;;;;;;5107262;28;19923;-71
2022/05/31 01:15:03;;;;;;;;;;;9.20;99.90;;;;;;5107820;28;19931;-71
2022/05/31 01:17:30;;;;;;;;;;;9.30;99.90;;;;;;5105587;28;19930;-72
2022/05/31 01:19:56;;;;;;;;;;;9.30;99.90;;;;;;5107706;28;19930;-71
2022/05/31 01:22:32;;;;;;;;;;;9.20;99.90;;;;;;5105124;28;20294;-70
2022/05/31 01:25:02;;;;;;;;;;;9.20;99.90;;;;;;5104154;28;20382;-70
2022/05/31 01:27:35;;;;;;;;;;;9.00;99.90;;;;;;5102855;28;19955;-70
2022/05/31 01:30:05;;;;;;;;;;;9.00;99.90;;;;;;5093042;28;20489;-70
2022/05/31 01:32:33;;;;;;;;;;;8.90;99.90;;;;;;5103828;28;19973;-70
2022/05/31 01:35:01;;;;;;;;;;;8.80;99.90;;;;;;5103559;28;20338;-70
2022/05/31 01:37:34;;;;;;;;;;;8.70;99.90;;;;;;5106682;28;19924;-70
2022/05/31 01:40:03;;;;;;;;;;;8.80;99.90;;;;;;5091365;28;19930;-70
2022/05/31 01:42:31;;;;;;;;;;;8.70;99.90;;;;;;5103922;28;19930;-70
2022/05/31 01:45:00;;;;;;;;;;;8.80;99.90;;;;;;5105192;28;19924;-70
2022/05/31 01:47:28;;;;;;;;;;;8.70;99.90;;;;;;5101844;28;19942;-70
2022/05/31 01:49:55;;;;;;;;;;;8.70;99.90;;;;;;5102773;28;19932;-71
2022/05/31 01:52:23;;;;;;;;;;;8.80;99.90;;;;;;5098787;28;19924;-70
2022/05/31 01:54:52;;;;;;;;;;;8.90;99.90;;;;;;5107835;28;19924;-70
2022/05/31 01:57:19;;;;;;;;;;;8.80;99.90;;;;;;5101510;28;19930;-70
2022/05/31 01:59:48;;;;;;;;;;;8.80;99.90;;;;;;5106935;28;20397;-70
2022/05/31 02:02:17;;;;;;;;;;;8.80;99.90;;;;;;5103002;28;20401;-70
2022/05/31 02:04:45;;;;;;;;;;;8.90;99.90;;;;;;5103123;28;19923;-70
2022/05/31 02:07:12;;;;;;;;;;;8.90;99.90;;;;;;5103969;28;19923;-70
2022/05/31 02:09:40;;;;;;;;;;;8.90;99.90;;;;;;5095039;28;19924;-70
2022/05/31 02:12:09;;;;;;;;;;;8.80;99.90;;;;;;5105399;28;19928;-71
2022/05/31 02:14:36;;;;;;;;;;;8.90;99.90;;;;;;5099605;28;20034;-70
2022/05/31 02:17:03;;;;;;;;;;;8.90;99.90;;;;;;5105069;28;20023;-70
2022/05/31 02:19:30;;;;;;;;;;;9.00;99.90;;;;;;5098083;28;19923;-70
2022/05/31 02:21:58;;;;;;;;;;;9.00;99.90;;;;;;5106275;28;20008;-70
2022/05/31 02:24:25;;;;;;;;;;;9.10;99.90;;;;;;5104667;28;19927;-70
2022/05/31 02:26:52;;;;;;;;;;;9.20;99.90;;;;;;5102733;28;19923;-70
2022/05/31 02:29:21;;;;;;;;;;;9.10;99.90;;;;;;5108349;28;19930;-70
2022/05/31 02:31:48;;;;;;;;;;;9.20;99.90;;;;;;5094812;28;20011;-71
2022/05/31 02:34:16;;;;;;;;;;;9.20;99.90;;;;;;5093217;28;19932;-70
2022/05/31 02:36:43;;;;;;;;;;;9.20;99.90;;;;;;5105869;28;19923;-70
2022/05/31 02:39:10;;;;;;;;;;;9.20;99.90;;;;;;5095754;28;19932;-70
2022/05/31 02:41:37;;;;;;;;;;;9.20;99.90;;;;;;5101764;28;20289;-70
2022/05/31 02:44:04;;;;;;;;;;;9.30;99.90;;;;;;5102987;28;19924;-69
2022/05/31 02:46:32;;;;;;;;;;;9.30;99.90;;;;;;5099722;28;19924;-72
2022/05/31 02:48:59;;;;;;;;;;;9.30;99.90;;;;;;5102764;28;19924;-70
2022/05/31 02:51:26;;;;;;;;;;;9.40;99.90;;;;;;5101394;28;19924;-71
2022/05/31 02:53:52;;;;;;;;;;;9.40;99.90;;;;;;5104885;28;19954;-71
2022/05/31 02:56:19;;;;;;;;;;;9.40;99.90;;;;;;5103867;28;21544;-71
2022/05/31 02:58:46;;;;;;;;;;;9.30;99.90;;;;;;5101167;28;19928;-71
2022/05/31 03:01:19;;;;;;;;;;;9.30;99.90;;;;;;5103354;28;19951;-71
2022/05/31 03:03:47;;;;;;;;;;;9.30;99.90;;;;;;5103253;28;20054;-71
2022/05/31 03:06:14;;;;;;;;;;;9.60;99.90;;;;;;5100516;28;19931;-71
2022/05/31 03:08:41;;;;;;;;;;;9.20;99.90;;;;;;5105469;28;20014;-70
2022/05/31 03:11:08;;;;;;;;;;;9.20;99.90;;;;;;5104755;28;19924;-70
2022/05/31 03:13:35;;;;;;;;;;;9.30;99.90;;;;;;5104434;28;19932;-70
2022/05/31 03:16:03;;;;;;;;;;;9.40;99.90;;;;;;5097037;28;20412;-70
2022/05/31 03:18:33;;;;;;;;;;;9.40;99.90;;;;;;5106483;28;19924;-70
2022/05/31 03:21:04;;;;;;;;;;;9.50;99.90;;;;;;5107632;28;20386;-71
2022/05/31 03:23:33;;;;;;;;;;;9.50;99.90;;;;;;5102729;28;19923;-70
2022/05/31 03:26:01;;;;;;;;;;;9.50;99.90;;;;;;5100551;28;19924;-70
2022/05/31 03:28:28;;;;;;;;;;;9.60;99.90;;;;;;5095676;28;20299;-70
2022/05/31 03:30:55;;;;;;;;;;;9.60;99.90;;;;;;5112971;28;20010;-70
2022/05/31 03:33:21;;;;;;;;;;;9.60;99.90;;;;;;5109029;28;19930;-70
2022/05/31 03:35:48;;;;;;;;;;;9.50;99.90;;;;;;5104099;27;19923;-70
2022/05/31 03:38:16;;;;;;;;;;;9.40;99.90;;;;;;5103360;28;20430;-70
2022/05/31 03:40:58;;;;;;;;;;;9.40;99.90;;;;;;5100370;28;19931;-71
2022/05/31 03:43:26;;;;;;;;;;;9.40;99.90;;;;;;5102669;27;19928;-70
2022/05/31 03:45:53;;;;;;;;;;;9.30;99.90;;;;;;5095756;28;19924;-71
2022/05/31 03:48:19;;;;;;;;;;;9.30;99.90;;;;;;5107284;28;19924;-70
2022/05/31 03:50:46;;;;;;;;;;;9.30;99.90;;;;;;5107796;28;19956;-70
2022/05/31 03:53:14;;;;;;;;;;;9.30;99.90;;;;;;5102290;28;19934;-70
2022/05/31 03:55:43;;;;;;;;;;;9.30;99.90;;;;;;5106537;28;19924;-70
2022/05/31 03:58:10;;;;;;;;;;;9.30;99.90;;;;;;5101392;28;20301;-70
2022/05/31 04:00:37;;;;;;;;;;;9.30;99.90;;;;;;5109611;28;19923;-70
2022/05/31 04:03:04;;;;;;;;;;;9.40;99.90;;;;;;5103489;28;20293;-71
2022/05/31 04:05:31;;;;;;;;;;;9.50;99.90;;;;;;5098007;28;20294;-71
2022/05/31 04:08:02;;;;;;;;;;;9.50;99.90;;;;;;5100619;28;20382;-70
2022/05/31 04:10:30;;;;;;;;;;;9.60;99.90;;;;;;5104680;28;19930;-70
2022/05/31 04:12:58;;;;;;;;;;;9.70;99.90;;;;;;5102604;28;19930;-71
2022/05/31 04:15:25;;;;;;;;;;;9.60;99.90;;;;;;5098087;28;19942;-70
2022/05/31 04:17:52;;;;;;;;;;;9.50;99.90;;;;;;5105606;27;20027;-70
2022/05/31 04:20:18;;;;;;;;;;;9.50;99.90;;;;;;5095502;28;19931;-70
2022/05/31 04:22:45;;;;;;;;;;;9.50;99.90;;;;;;5100731;28;19932;-70
2022/05/31 04:25:12;;;;;;;;;;;9.50;99.90;;;;;;5112098;28;20018;-70
2022/05/31 04:27:39;;;;;;;;;;;9.70;99.90;;;;;;5101647;28;19931;-70
2022/05/31 04:30:08;;;;;;;;;;;9.70;99.90;;;;;;5092574;28;20011;-70
2022/05/31 04:32:34;;;;;;;;;;;9.90;99.90;;;;;;5096143;28;20446;-70
2022/05/31 04:35:01;;;;;;;;;;;9.90;99.90;;;;;;5105740;28;19923;-71
2022/05/31 04:37:28;;;;;;;;;;;10.10;99.90;;;;;;5101994;28;20384;-70
2022/05/31 04:39:55;;;;;;;;;;;10.00;99.90;;;;;;5102065;28;19934;-70
2022/05/31 04:42:22;;;;;;;;;;;10.00;99.90;;;;;;5100758;28;19938;-70
2022/05/31 04:44:48;;;;;;;;;;;10.10;99.90;;;;;;5101726;28;20015;-70
2022/05/31 04:47:16;;;;;;;;;;;10.00;99.90;;;;;;5098840;28;19957;-69
2022/05/31 04:49:43;;;;;;;;;;;10.00;99.90;;;;;;5104577;28;19924;-70
2022/05/31 04:52:10;;;;;;;;;;;10.00;99.90;;;;;;5098859;27;19966;-69
2022/05/31 04:54:36;;;;;;;;;;;10.10;99.90;;;;;;5103573;28;20381;-69
2022/05/31 04:57:04;;;;;;;;;;;10.20;99.90;;;;;;5101738;28;20276;-69
2022/05/31 04:59:31;;;;;;;;;;;10.30;99.90;;;;;;5104952;28;20294;-69
2022/05/31 05:01:58;;;;;;;;;;;10.40;99.90;;;;;;5101846;27;19924;-69
2022/05/31 05:04:26;;;;;;;;;;;10.50;99.90;;;;;;5101658;28;19924;-69
2022/05/31 05:06:53;;;;;;;;;;;10.60;99.90;;;;;;5096667;28;19930;-69
2022/05/31 05:09:19;;;;;;;;;;;10.60;99.90;;;;;;5107877;28;20447;-69
2022/05/31 05:11:46;;;;;;;;;;;10.60;99.90;;;;;;5108477;28;19924;-70
2022/05/31 05:14:13;;;;;;;;;;;10.60;99.90;;;;;;5104468;28;19924;-70
2022/05/31 05:16:39;;;;;;;;;;;10.50;99.90;;;;;;5110619;27;19930;-70
2022/05/31 05:19:06;;;;;;;;;;;10.60;99.90;;;;;;5116075;27;19958;-70
2022/05/31 05:21:34;;;;;;;;;;;10.60;99.90;;;;;;5121261;27;20351;-70
2022/05/31 05:24:01;;;;;;;;;;;10.50;99.90;;;;;;5118895;27;20404;-70
2022/05/31 05:26:27;;;;;;;;;;;10.50;99.90;;;;;;5125707;27;19975;-69
2022/05/31 05:31:40;;;;;;;;;;;10.60;99.90;;;;;;5112379;28;19930;-69
2022/05/31 05:34:07;;;;;;;;;;;10.80;99.90;;;;;;5104918;28;20132;-69
2022/05/31 05:36:35;;;;;;;;;;;10.70;99.90;;;;;;5101933;27;20417;-69
2022/05/31 05:39:02;;;;;;;;;;;10.70;99.90;;;;;;5097083;28;20366;-69
2022/05/31 05:41:29;;;;;;;;;;;10.90;99.90;;;;;;5105846;28;19924;-71
2022/05/31 05:43:56;;;;;;;;;;;11.10;99.90;;;;;;5097186;28;20007;-68
2022/05/31 05:46:23;;;;;;;;;;;11.30;99.90;;;;;;5103346;27;19997;-67
2022/05/31 05:48:50;;;;;;;;;;;11.50;99.90;;;;;;5104584;28;19924;-68
2022/05/31 05:51:18;;;;;;;;;;;11.70;99.90;;;;;;5095662;28;20398;-70
2022/05/31 05:53:46;;;;;;;;;;;12.00;99.90;;;;;;5110650;28;19927;-70
2022/05/31 05:56:13;;;;;;;;;;;11.90;99.90;;;;;;5101323;27;19942;-71
2022/05/31 05:58:40;;;;;;;;;;;11.50;99.90;;;;;;5103030;27;19934;-70
2022/05/31 06:01:08;;;;;;;;;;;11.60;99.90;;;;;;5102856;28;20024;-70
2022/05/31 06:03:37;;;;;;;;;;;11.80;99.90;;;;;;5107430;28;19930;-70
2022/05/31 06:06:04;;;;;;;;;;;12.00;99.90;;;;;;5103436;27;19928;-70
2022/05/31 06:08:32;;;;;;;;;;;11.80;99.90;;;;;;5096166;28;19924;-70
2022/05/31 06:11:06;;;;;;;;;;;11.80;99.90;;;;;;5100335;27;19927;-70
2022/05/31 06:13:35;;;;;;;;;;;12.20;99.90;;;;;;5104425;27;19931;-71
2022/05/31 06:16:03;;;;;;;;;;;12.60;99.90;;;;;;5098331;28;19946;-71
2022/05/31 06:18:32;;;;;;;;;;;12.80;99.90;;;;;;5099480;28;19935;-70
2022/05/31 06:21:01;;;;;;;;;;;13.30;99.90;;;;;;5099978;27;19924;-71
2022/05/31 06:23:28;;;;;;;;;;;13.50;99.90;;;;;;5103154;28;19976;-70
2022/05/31 06:25:55;;;;;;;;;;;13.40;99.90;;;;;;5100787;27;19924;-70
2022/05/31 06:28:23;;;;;;;;;;;13.40;99.90;;;;;;5099032;28;19938;-70
2022/05/31 06:30:49;;;;;;;;;;;13.60;99.90;;;;;;5097508;28;19924;-70
2022/05/31 06:33:16;;;;;;;;;;;13.70;99.90;;;;;;5100323;28;20014;-69
2022/05/31 06:35:42;;;;;;;;;;;13.90;99.90;;;;;;5099509;28;19924;-69
2022/05/31 06:38:09;;;;;;;;;;;13.80;99.90;;;;;;5100116;28;19931;-69
2022/05/31 06:40:36;;;;;;;;;;;13.60;99.90;;;;;;5101262;27;20095;-71
2022/05/31 06:43:03;;;;;;;;;;;14.20;99.90;;;;;;5097784;28;20024;-71
2022/05/31 06:45:31;;;;;;;;;;;14.60;99.90;;;;;;5106139;28;19939;-71
2022/05/31 06:47:57;;;;;;;;;;;14.90;99.90;;;;;;5104913;28;20359;-71
2022/05/31 06:50:24;;;;;;;;;;;15.30;99.90;;;;;;5099259;28;19976;-69
2022/05/31 06:58:19;;;;;;;;;;;15.90;98.00;;;;;;5099785;28;20827;-69
2022/05/31 07:00:47;;;;;;;;;;;15.90;95.80;;;;;;5099905;28;19935;-68
2022/05/31 07:03:14;;;;;;;;;;;15.90;95.40;;;;;;5097900;28;19932;-69
2022/05/31 07:05:42;;;;;;;;;;;16.20;94.20;;;;;;5103126;27;19968;-70
2022/05/31 07:08:08;;;;;;;;;;;16.70;93.80;;;;;;5112731;27;19932;-70
2022/05/31 07:10:35;;;;;;;;;;;17.00;92.30;;;;;;5110303;28;19928;-68
2022/05/31 07:13:01;;;;;;;;;;;17.60;91.10;;;;;;5099136;28;19932;-69
2022/05/31 07:15:28;;;;;;;;;;;17.70;87.00;;;;;;5105998;27;19930;-69
2022/05/31 07:18:00;;;;;;;;;;;17.20;85.90;;;;;;5109596;27;20006;-69
2022/05/31 07:20:26;;;;;;;;;;;16.70;87.30;;;;;;5110037;28;20379;-69
2022/05/31 07:22:53;;;;;;;;;;;16.60;90.10;;;;;;5108229;28;20030;-69
2022/05/31 07:25:20;;;;;;;;;;;17.50;91.10;;;;;;5101424;28;19935;-70
2022/05/31 07:27:46;;;;;;;;;;;20.30;81.50;;;;;;5113423;28;19924;-70
2022/05/31 07:30:13;;;;;;;;;;;21.60;68.50;;;;;;5101242;28;19935;-71
2022/05/31 07:32:40;;;;;;;;;;;22.50;59.30;;;;;;5107156;28;20019;-66
2022/05/31 07:35:08;;;;;;;;;;;22.80;56.60;;;;;;5112183;27;19974;-70
2022/05/31 07:37:35;;;;;;;;;;;21.70;55.20;;;;;;5108176;27;20293;-70
2022/05/31 07:40:02;;;;;;;;;;;20.90;57.50;;;;;;5110289;27;19944;-70
2022/05/31 07:42:29;;;;;;;;;;;21.50;56.80;;;;;;5112088;28;19924;-70
2022/05/31 07:44:56;;;;;;;;;;;21.90;52.60;;;;;;5107989;27;19924;-71
2022/05/31 07:47:22;;;;;;;;;;;22.00;53.20;;;;;;5100507;28;19924;-71
2022/05/31 07:49:49;;;;;;;;;;;23.60;49.70;;;;;;5109365;28;20347;-71
2022/05/31 07:52:18;;;;;;;;;;;25.10;46.60;;;;;;5114627;27;20404;-71
2022/05/31 07:54:45;;;;;;;;;;;25.90;41.90;;;;;;5111316;28;19939;-71
2022/05/31 07:58:30;;;;;;;;;;;26.10;34.10;;;;;;5107480;27;19923;-71
2022/05/31 07:59:59;;;;;;;;;;;25.70;34.80;;;;;;5103560;28;19924;-70
2022/05/31 08:02:26;;;;;;;;;;;26.60;36.50;;;;;;5105845;27;19930;-70
2022/05/31 08:04:52;;;;;;;;;;;27.40;33.50;;;;;;5104591;27;19970;-71
2022/05/31 08:07:20;;;;;;;;;;;27.80;42.00;;;;;;5105902;28;20070;-71
2022/05/31 08:09:47;;;;;;;;;;;28.20;17.90;;;;;;5108104;27;19924;-71
2022/05/31 08:12:14;;;;;;;;;;;28.20;12.50;;;;;;5100129;28;19931;-71
2022/05/31 08:14:40;;;;;;;;;;;28.00;13.40;;;;;;5104902;28;20026;-71
2022/05/31 08:17:09;;;;;;;;;;;27.90;11.60;;;;;;5106162;28;20294;-71
2022/05/31 08:19:37;;;;;;;;;;;27.70;11.70;;;;;;5106370;27;19930;-71
2022/05/31 08:22:04;;;;;;;;;;;27.80;10.80;;;;;;5109534;27;19938;-71
2022/05/31 08:24:32;;;;;;;;;;;28.10;10.30;;;;;;5111772;28;19943;-71
2022/05/31 08:27:00;;;;;;;;;;;28.10;10.00;;;;;;5109504;27;19938;-70
2022/05/31 08:29:28;;;;;;;;;;;27.20;10.60;;;;;;5105373;28;19924;-71
2022/05/31 08:31:57;;;;;;;;;;;26.50;11.90;;;;;;5100598;27;19924;-71
2022/05/31 08:34:24;;;;;;;;;;;26.40;11.90;;;;;;5100416;28;19980;-71
2022/05/31 08:36:50;;;;;;;;;;;27.00;11.40;;;;;;5100851;28;20014;-70
2022/05/31 08:39:17;;;;;;;;;;;26.90;11.10;;;;;;5108531;28;19924;-70
2022/05/31 08:41:46;;;;;;;;;;;26.70;12.60;;;;;;5098570;28;20281;-71
2022/05/31 08:44:20;;;;;;;;;;;26.80;12.20;;;;;;5106397;27;19924;-70
2022/05/31 08:46:57;;;;;;;;;;;25.30;12.50;;;;;;5102310;28;20393;-71
2022/05/31 08:51:52;;;;;;;;;;;26.40;11.00;;;;;;5094714;28;19924;-73
2022/05/31 08:52:19;;;;;;;;;;;26.70;9.70;;;;;;5106819;27;19924;-71
2022/05/31 08:57:34;;;;;;;;;;;26.40;9.20;;;;;;5102661;28;19931;-69
2022/05/31 09:00:04;;;;;;;;;;;26.10;9.70;;;;;;5106688;27;20019;-69
2022/05/31 09:02:32;;;;;;;;;;;25.60;10.40;;;;;;5103445;28;19931;-69
2022/05/31 09:05:04;;;;;;;;;;;25.20;10.40;;;;;;5105122;27;19981;-69
2022/05/31 09:07:33;;;;;;;;;;;25.40;11.60;;;;;;5103146;27;20383;-69
2022/05/31 09:10:04;;;;;;;;;;;26.20;9.90;;;;;;5102640;28;19924;-68
2022/05/31 09:12:36;;;;;;;;;;;25.60;9.10;;;;;;5107475;27;20011;-69
2022/05/31 09:15:05;;;;;;;;;;;24.90;11.40;;;;;;5108808;27;19934;-68
2022/05/31 09:17:36;;;;;;;;;;;26.30;9.70;;;;;;5101405;27;19932;-69
2022/05/31 09:20:04;;;;;;;;;;;27.10;8.50;;;;;;5100475;27;19932;-67
2022/05/31 09:22:31;;;;;;;;;;;27.20;7.30;;;;;;5101464;27;19938;-68
2022/05/31 09:24:58;;;;;;;;;;;27.30;6.50;;;;;;5105008;28;19970;-67
2022/05/31 09:27:28;;;;;;;;;;;27.00;5.70;;;;;;5105855;28;19930;-67
2022/05/31 09:30:03;;;;;;;;;;;27.30;5.20;;;;;;5098105;28;19927;-68
2022/05/31 09:32:47;;;;;;;;;;;27.40;5.90;;;;;;5105027;27;19927;-68
2022/05/31 09:35:22;;;;;;;;;;;26.80;5.00;;;;;;5107178;27;20010;-68
2022/05/31 09:37:54;;;;;;;;;;;26.20;6.60;;;;;;5104166;27;19931;-67
2022/05/31 09:40:32;;;;;;;;;;;26.00;6.10;;;;;;5105240;27;20355;-67
2022/05/31 09:43:01;;;;;;;;;;;26.10;7.00;;;;;;5101818;27;19930;-68
2022/05/31 09:45:30;;;;;;;;;;;26.50;5.20;;;;;;5102597;28;19932;-68
2022/05/31 09:47:59;;;;;;;;;;;27.20;4.10;;;;;;5103900;28;19930;-70
2022/05/31 09:50:27;;;;;;;;;;;27.30;3.30;;;;;;5099076;27;20027;-69
2022/05/31 09:52:56;;;;;;;;;;;26.30;4.10;;;;;;5098632;27;19923;-68
2022/05/31 09:58:19;;;;;;;;;;;27.00;3.90;;;;;;5106589;27;19930;-67
2022/05/31 10:00:59;;;;;;;;;;;26.30;4.10;;;;;;5104999;28;20364;-68
2022/05/31 10:03:33;;;;;;;;;;;25.90;4.30;;;;;;5104261;28;19971;-67
2022/05/31 10:06:05;;;;;;;;;;;25.20;6.20;;;;;;5103059;28;19928;-67
2022/05/31 10:08:34;;;;;;;;;;;23.40;7.50;;;;;;5111282;27;19924;-67
2022/05/31 10:11:04;;;;;;;;;;;22.20;9.50;;;;;;5108000;28;20357;-67
2022/05/31 10:13:36;;;;;;;;;;;22.00;9.90;;;;;;5102779;27;19923;-69
2022/05/31 10:16:11;;;;;;;;;;;21.90;10.10;;;;;;5102572;28;19981;-69
2022/05/31 10:18:46;;;;;;;;;;;22.00;10.30;;;;;;5100294;28;20015;-66
2022/05/31 10:21:13;;;;;;;;;;;22.20;9.90;;;;;;5103443;28;19923;-67
2022/05/31 10:23:41;;;;;;;;;;;22.00;9.20;;;;;;5101479;28;19967;-68
2022/05/31 10:26:08;;;;;;;;;;;22.10;10.30;;;;;;5103590;28;20796;-67
2022/05/31 10:28:37;;;;;;;;;;;22.20;9.00;;;;;;5103630;28;20506;-68
2022/05/31 10:31:05;;;;;;;;;;;22.20;9.80;;;;;;5099968;28;20309;-67
2022/05/31 10:33:34;;;;;;;;;;;22.10;8.70;;;;;;5096328;28;20386;-69
2022/05/31 10:36:06;;;;;;;;;;;21.80;10.50;;;;;;5106003;28;19950;-68
2022/05/31 10:38:33;;;;;;;;;;;21.80;10.50;;;;;;5096884;28;20024;-69
2022/05/31 10:41:01;;;;;;;;;;;21.80;7.20;;;;;;5103130;28;20022;-68
2022/05/31 10:43:31;;;;;;;;;;;21.60;9.40;;;;;;5099023;28;19924;-69
2022/05/31 10:45:59;;;;;;;;;;;21.50;10.00;;;;;;5102628;28;19934;-69
2022/05/31 10:48:26;;;;;;;;;;;21.40;9.60;;;;;;5102476;28;19928;-69
2022/05/31 10:50:57;;;;;;;;;;;21.40;9.00;;;;;;5096715;28;20160;-67
2022/05/31 10:53:30;;;;;;;;;;;21.30;9.40;;;;;;5103635;28;20018;-67
2022/05/31 10:55:59;;;;;;;;;;;21.30;8.20;;;;;;5097190;28;20028;-67
2022/05/31 10:58:57;;;;;;;;;;;21.10;8.20;;;;;;5099047;28;19946;-67
2022/05/31 11:01:41;;;;;;;;;;;20.70;7.60;;;;;;5056427;28;19930;-68
2022/05/31 11:04:16;;;;;;;;;;;20.90;7.80;;;;;;5105031;28;19923;-68
2022/05/31 11:06:50;;;;;;;;;;;21.40;10.70;;;;;;5096303;28;20056;-67
2022/05/31 11:12:29;;;;;;;;;;;21.10;10.40;;;;;;5089187;28;19931;-67
2022/05/31 11:15:11;;;;;;;;;;;21.60;9.30;;;;;;5098798;28;20027;-67
2022/05/31 11:17:52;;;;;;;;;;;21.40;7.20;;;;;;5107094;28;20018;-68
2022/05/31 11:20:21;;;;;;;;;;;21.40;7.60;;;;;;5107447;28;20364;-67
2022/05/31 11:22:56;;;;;;;;;;;21.90;7.60;;;;;;5104085;28;19946;-67
2022/05/31 11:25:38;;;;;;;;;;;22.20;6.70;;;;;;5102607;28;20366;-68
2022/05/31 11:28:13;;;;;;;;;;;22.10;7.70;;;;;;5108132;28;19924;-70
2022/05/31 11:30:42;;;;;;;;;;;22.40;7.00;;;;;;5110441;28;20006;-67
2022/05/31 11:33:33;;;;;;;;;;;22.30;7.00;;;;;;5100221;28;19932;-68
2022/05/31 11:36:08;;;;;;;;;;;22.50;6.90;;;;;;5106622;28;19930;-67
2022/05/31 11:38:44;;;;;;;;;;;22.10;6.20;;;;;;5099891;28;19924;-68
2022/05/31 11:41:16;;;;;;;;;;;22.00;6.50;;;;;;5105881;28;19932;-67
2022/05/31 11:43:55;;;;;;;;;;;21.60;5.90;;;;;;5101106;28;19931;-67
2022/05/31 11:46:27;;;;;;;;;;;21.70;7.30;;;;;;5099681;28;19924;-68
2022/05/31 11:49:00;;;;;;;;;;;21.60;6.10;;;;;;5103695;28;19968;-68
2022/05/31 11:51:33;;;;;;;;;;;21.60;5.80;;;;;;5102980;28;20398;-68
2022/05/31 11:54:09;;;;;;;;;;;21.90;6.20;;;;;;5111301;27;19923;-70
2022/05/31 11:56:42;;;;;;;;;;;22.00;6.80;;;;;;5108756;27;19930;-68
2022/05/31 11:59:13;;;;;;;;;;;22.20;6.40;;;;;;5104067;28;19924;-68
2022/05/31 12:01:42;;;;;;;;;;;22.20;6.80;;;;;;5101163;28;19932;-67
2022/05/31 12:04:12;;;;;;;;;;;21.50;7.10;;;;;;5096044;28;19978;-67
2022/05/31 12:06:42;;;;;;;;;;;21.50;7.70;;;;;;5100917;27;20409;-67
2022/05/31 12:09:15;;;;;;;;;;;21.60;6.90;;;;;;5108918;27;20019;-67
2022/05/31 12:11:44;;;;;;;;;;;21.50;8.30;;;;;;5115885;27;19975;-67
2022/05/31 12:14:12;;;;;;;;;;;21.50;7.70;;;;;;5103485;28;20007;-65
2022/05/31 12:16:40;;;;;;;;;;;21.60;8.10;;;;;;5100711;28;19932;-67
2022/05/31 12:19:12;;;;;;;;;;;21.70;7.70;;;;;;5106120;28;20018;-67
2022/05/31 12:21:39;;;;;;;;;;;21.60;8.40;;;;;;5097911;28;19930;-66
2022/05/31 12:24:09;;;;;;;;;;;21.40;8.80;;;;;;5113726;27;19923;-66
2022/05/31 12:26:39;;;;;;;;;;;21.40;8.80;;;;;;5108086;27;20029;-67
2022/05/31 12:29:11;;;;;;;;;;;21.10;9.20;;;;;;5108418;28;20408;-67
2022/05/31 12:31:39;;;;;;;;;;;21.00;9.30;;;;;;5111439;27;19928;-67
2022/05/31 12:34:27;;;;;;;;;;;21.20;9.50;;;;;;5110687;27;20018;-67
2022/05/31 12:36:58;;;;;;;;;;;20.80;9.00;;;;;;5103083;28;20227;-67
2022/05/31 12:39:30;;;;;;;;;;;21.00;9.60;;;;;;5094716;28;20006;-67
2022/05/31 12:41:58;;;;;;;;;;;21.20;8.60;;;;;;5103412;27;19925;-67
2022/05/31 12:44:29;;;;;;;;;;;21.50;9.20;;;;;;5108296;27;19924;-67
2022/05/31 12:46:56;;;;;;;;;;;21.90;8.30;;;;;;5103578;28;19925;-67
2022/05/31 12:49:25;;;;;;;;;;;21.80;7.90;;;;;;5099269;28;19924;-67
2022/05/31 12:52:10;;;;;;;;;;;22.00;8.60;;;;;;5092139;28;19928;-66
2022/05/31 12:54:43;;;;;;;;;;;21.70;7.70;;;;;;5094704;28;19928;-66
2022/05/31 12:57:22;;;;;;;;;;;21.20;7.40;;;;;;5111444;27;19924;-67
2022/05/31 12:59:51;;;;;;;;;;;21.10;8.30;;;;;;5110719;27;19924;-67
2022/05/31 13:02:41;;;;;;;;;;;21.00;8.50;;;;;;5106791;28;20006;-68
2022/05/31 13:05:26;;;;;;;;;;;20.90;9.50;;;;;;5102134;28;19923;-68
2022/05/31 13:08:09;;;;;;;;;;;21.00;9.40;;;;;;5098769;27;19928;-68
2022/05/31 13:10:37;;;;;;;;;;;21.20;10.30;;;;;;5118604;27;19930;-68
2022/05/31 13:21:26;;;;;;;;;;;21.90;8.50;;;;;;5115215;27;20037;-68
2022/05/31 13:23:54;;;;;;;;;;;22.00;8.40;;;;;;5095202;28;20024;-68
2022/05/31 13:26:23;;;;;;;;;;;21.90;8.50;;;;;;5105086;28;19930;-68
2022/05/31 13:28:58;;;;;;;;;;;22.10;8.60;;;;;;5107068;28;19924;-68
2022/05/31 13:31:26;;;;;;;;;;;22.50;6.80;;;;;;5108037;28;19924;-69
2022/05/31 13:33:57;;;;;;;;;;;22.30;6.40;;;;;;5107770;27;19924;-68
2022/05/31 13:36:24;;;;;;;;;;;21.60;7.70;;;;;;5110383;27;19928;-68
2022/05/31 13:38:53;;;;;;;;;;;21.50;7.80;;;;;;5107263;27;19971;-68
2022/05/31 13:41:21;;;;;;;;;;;21.80;7.10;;;;;;5092392;28;20367;-69
2022/05/31 13:43:50;;;;;;;;;;;21.70;8.20;;;;;;5107257;28;19924;-68
2022/05/31 13:46:23;;;;;;;;;;;21.30;7.60;;;;;;5112903;27;19930;-69
2022/05/31 13:48:52;;;;;;;;;;;21.10;8.50;;;;;;5107609;27;19942;-68
2022/05/31 13:51:20;;;;;;;;;;;21.10;9.00;;;;;;5127568;27;20006;-68
2022/05/31 13:53:47;;;;;;;;;;;21.30;9.20;;;;;;5107467;27;19930;-68
2022/05/31 13:56:15;;;;;;;;;;;21.40;9.20;;;;;;5107685;28;20079;-68
2022/05/31 13:58:42;;;;;;;;;;;21.40;8.40;;;;;;5104513;28;20386;-68
2022/05/31 14:01:22;;;;;;;;;;;21.30;8.80;;;;;;5092264;28;19977;-68
2022/05/31 14:03:49;;;;;;;;;;;21.20;9.10;;;;;;5110840;28;19968;-68
2022/05/31 14:06:17;;;;;;;;;;;21.20;9.20;;;;;;5108865;27;19931;-69
2022/05/31 14:08:49;;;;;;;;;;;21.40;8.90;;;;;;5118192;27;20421;-68
2022/05/31 14:11:17;;;;;;;;;;;21.50;7.40;;;;;;5095306;28;20363;-68
2022/05/31 14:13:46;;;;;;;;;;;21.60;8.30;;;;;;5111458;27;19928;-69
2022/05/31 14:16:15;;;;;;;;;;;21.90;8.90;;;;;;5097583;28;20019;-67
2022/05/31 14:18:45;;;;;;;;;;;21.80;8.90;;;;;;5105834;28;19935;-68
2022/05/31 14:21:12;;;;;;;;;;;21.60;8.90;;;;;;5091467;27;19924;-68
2022/05/31 14:23:39;;;;;;;;;;;21.60;8.40;;;;;;5102305;28;19930;-68
2022/05/31 14:26:06;;;;;;;;;;;21.60;7.50;;;;;;5110582;27;20010;-69
2022/05/31 14:28:33;;;;;;;;;;;21.50;8.20;;;;;;5105994;27;19927;-69
2022/05/31 14:31:01;;;;;;;;;;;21.50;6.70;;;;;;5099494;27;19946;-71
2022/05/31 14:33:31;;;;;;;;;;;21.40;6.90;;;;;;5097468;28;20205;-68
2022/05/31 14:36:00;;;;;;;;;;;21.40;7.30;;;;;;5092092;28;19924;-68
2022/05/31 14:38:30;;;;;;;;;;;21.40;6.40;;;;;;5105098;28;19924;-68
2022/05/31 14:41:00;;;;;;;;;;;21.40;6.60;;;;;;5112209;27;19923;-66
2022/05/31 14:43:29;;;;;;;;;;;21.40;7.00;;;;;;5106972;27;19930;-67
2022/05/31 14:45:56;;;;;;;;;;;21.10;7.50;;;;;;5094821;28;20038;-67
2022/05/31 14:48:44;;;;;;;;;;;21.00;6.80;;;;;;5091910;28;19924;-68
2022/05/31 14:51:13;;;;;;;;;;;20.90;7.50;;;;;;5106963;28;19924;-68
2022/05/31 14:53:41;;;;;;;;;;;20.80;8.30;;;;;;5107255;28;19996;-68
2022/05/31 14:56:19;;;;;;;;;;;20.70;9.60;;;;;;5104242;28;19924;-67
2022/05/31 14:58:47;;;;;;;;;;;20.50;9.80;;;;;;5090692;28;20007;-67
2022/05/31 15:01:15;;;;;;;;;;;20.10;11.70;;;;;;5094570;28;19932;-67
2022/05/31 15:03:43;;;;;;;;;;;19.30;13.20;;;;;;5105473;28;19923;-67